Time;durP1;ratioP1;P1;durP2;ratioP2;P2;SDS_P1;SDS_P2;PMS_P1;PMS_P2;Temp;Humidity;BMP_temperature;BMP_pressure;BME280_temperature;BME280_humidity;BME280_pressure;Samples;Min_cycle;Max_cycle;Signal;HPM_P1;HPM_P2
2021/10/16 00:00:04;;;;;;;14.85;8.98;;;;;;;10.47;77.07;100505.00;5072698;28;20067;-63
2021/10/16 00:02:49;;;;;;;22.33;10.98;;;;;;;10.48;76.72;100505.88;5072239;28;20055;-64
2021/10/16 00:05:33;;;;;;;17.85;10.27;;;;;;;10.46;76.56;100498.06;5073109;28;20079;-63
2021/10/16 00:08:19;;;;;;;17.27;10.02;;;;;;;10.46;76.73;100499.78;5073830;28;20191;-63
2021/10/16 00:11:07;;;;;;;13.40;8.00;;;;;;;10.46;76.62;100507.56;5077402;28;20127;-63
2021/10/16 00:13:54;;;;;;;14.27;8.27;;;;;;;10.44;76.84;100509.22;5076407;28;20071;-63
2021/10/16 00:16:38;;;;;;;14.10;7.47;;;;;;;10.44;76.49;100504.91;5077018;28;20420;-63
2021/10/16 00:19:27;;;;;;;13.23;7.43;;;;;;;10.42;76.74;100516.09;5077325;28;20063;-63
2021/10/16 00:22:22;;;;;;;11.90;7.32;;;;;;;10.41;76.83;100516.94;5076357;28;20043;-63
2021/10/16 00:25:12;;;;;;;14.70;5.85;;;;;;;10.38;76.60;100515.16;5076194;28;20056;-63
2021/10/16 00:27:57;;;;;;;16.98;7.47;;;;;;;10.34;76.48;100521.06;5076035;28;20079;-63
2021/10/16 00:30:40;;;;;;;15.00;6.43;;;;;;;10.33;76.58;100511.53;5076242;28;20106;-63
2021/10/16 00:33:25;;;;;;;13.45;6.05;;;;;;;10.31;76.31;100510.59;5076552;28;20059;-64
2021/10/16 00:36:11;;;;;;;;;;;;;;;10.28;76.12;100501.06;5077122;28;20129;-64
2021/10/16 00:38:58;;;;;;;12.68;5.88;;;;;;;10.25;76.66;100508.75;5076050;28;19965;-63
2021/10/16 00:41:47;;;;;;;14.40;5.85;;;;;;;10.24;76.42;100500.94;5076655;28;20419;-63
2021/10/16 00:44:39;;;;;;;12.45;5.40;;;;;;;10.24;76.56;100501.81;5076781;28;20043;-63
2021/10/16 00:47:31;;;;;;;11.20;5.63;;;;;;;10.24;76.44;100506.13;5076440;28;20098;-63
2021/10/16 00:50:17;;;;;;;12.60;5.43;;;;;;;10.21;76.61;100505.22;5075982;28;20063;-63
2021/10/16 00:53:06;;;;;;;14.75;6.10;;;;;;;10.20;76.22;100499.97;5075724;28;20047;-63
2021/10/16 00:55:54;;;;;;;10.10;6.28;;;;;;;10.18;76.16;100496.50;5075656;28;20052;-63
2021/10/16 00:58:41;;;;;;;14.18;5.63;;;;;;;10.18;76.28;100496.50;5076279;28;20083;-63
2021/10/16 01:01:32;;;;;;;13.48;5.95;;;;;;;10.17;76.54;100497.34;5075490;28;20051;-64
2021/10/16 01:04:24;;;;;;;13.75;6.03;;;;;;;10.16;76.12;100500.75;5076507;28;20044;-64
2021/10/16 01:07:15;;;;;;;10.82;6.47;;;;;;;10.14;76.49;100497.25;5075331;28;20569;-63
2021/10/16 01:10:06;;;;;;;12.88;5.45;;;;;;;10.12;76.16;100493.75;5075786;28;20067;-63
2021/10/16 01:12:51;;;;;;;14.48;6.75;;;;;;;10.10;76.05;100498.00;5075475;28;20055;-63
2021/10/16 01:15:39;;;;;;;14.10;6.82;;;;;;;10.08;76.23;100497.09;5076109;28;20533;-63
2021/10/16 01:18:26;;;;;;;13.52;6.75;;;;;;;10.08;76.15;100495.38;5075378;28;20055;-63
2021/10/16 01:21:14;;;;;;;12.65;7.13;;;;;;;10.07;75.99;100488.44;5074201;28;20475;-63
2021/10/16 01:23:59;;;;;;;12.05;6.82;;;;;;;10.05;75.71;100488.41;5075381;28;20135;-63
2021/10/16 01:26:49;;;;;;;9.88;6.22;;;;;;;10.06;76.06;100484.09;5075886;28;20063;-63
2021/10/16 01:29:38;;;;;;;11.95;6.18;;;;;;;10.05;76.14;100483.22;5075273;28;20055;-63
2021/10/16 01:32:30;;;;;;;13.82;6.05;;;;;;;10.04;76.21;100480.59;5076058;28;20097;-63
2021/10/16 01:35:15;;;;;;;16.35;6.10;;;;;;;10.02;76.15;100477.09;5074631;28;20098;-63
2021/10/16 01:38:02;;;;;;;13.80;6.53;;;;;;;10.00;76.20;100478.75;5074731;28;20064;-63
2021/10/16 01:40:47;;;;;;;14.20;5.80;;;;;;;9.99;75.94;100477.91;5076017;28;20046;-63
2021/10/16 01:43:36;;;;;;;14.18;6.40;;;;;;;9.97;75.73;100470.91;5074732;28;20150;-63
2021/10/16 01:46:26;;;;;;;12.75;7.05;;;;;;;9.96;75.94;100477.81;5074995;28;20098;-63
2021/10/16 01:49:15;;;;;;;16.38;6.95;;;;;;;9.94;75.92;100478.63;5075449;28;20056;-63
2021/10/16 01:52:03;;;;;;;14.50;7.13;;;;;;;9.91;75.72;100461.28;5074817;28;20101;-63
2021/10/16 01:54:53;;;;;;;20.98;7.97;;;;;;;9.90;75.74;100473.38;5075372;28;20075;-63
2021/10/16 01:57:42;;;;;;;14.82;6.82;;;;;;;9.88;75.63;100471.59;5074715;28;20074;-63
2021/10/16 02:00:26;;;;;;;16.55;6.90;;;;;;;9.87;76.02;100472.41;5075096;28;20121;-63
2021/10/16 02:03:14;;;;;;;17.33;7.20;;;;;;;9.86;75.72;100473.25;5075545;28;20075;-63
2021/10/16 02:06:00;;;;;;;18.40;7.78;;;;;;;9.84;75.47;100474.91;5074099;28;20517;-63
2021/10/16 02:08:50;;;;;;;13.30;7.20;;;;;;;9.83;75.67;100468.00;5074127;28;20051;-63
2021/10/16 02:11:42;;;;;;;26.15;7.30;;;;;;;9.82;75.66;100472.28;5075365;28;20107;-63
2021/10/16 02:14:28;;;;;;;13.45;7.05;;;;;;;9.82;75.43;100466.22;5073916;28;20097;-63
2021/10/16 02:17:15;;;;;;;15.80;6.53;;;;;;;9.81;75.63;100480.00;5074771;28;20099;-63
2021/10/16 02:20:05;;;;;;;16.42;7.22;;;;;;;9.80;75.68;100473.97;5075098;28;20090;-63
2021/10/16 02:22:49;;;;;;;14.23;7.55;;;;;;;9.80;75.37;100470.50;5074649;28;20102;-63
2021/10/16 02:25:35;;;;;;;14.68;7.30;;;;;;;9.80;75.69;100478.25;5074437;28;20119;-63
2021/10/16 02:28:19;;;;;;;12.68;6.68;;;;;;;9.77;75.26;100475.59;5074719;28;20040;-63
2021/10/16 02:31:06;;;;;;;17.73;7.75;;;;;;;9.75;75.42;100473.81;5074552;28;20055;-63
2021/10/16 02:33:56;;;;;;;15.57;7.20;;;;;;;9.75;75.40;100475.56;5072907;28;20047;-63
2021/10/16 02:36:49;;;;;;;11.88;6.35;;;;;;;9.72;75.44;100481.53;5073428;28;20074;-64
2021/10/16 02:39:36;;;;;;;12.10;6.72;;;;;;;9.69;75.35;100481.44;5074354;28;20064;-63
2021/10/16 02:42:23;;;;;;;15.20;6.60;;;;;;;9.68;75.20;100481.38;5073873;28;20097;-63
2021/10/16 02:45:11;;;;;;;11.43;5.93;;;;;;;9.67;75.29;100487.41;5074098;28;20051;-64
2021/10/16 02:47:55;;;;;;;15.10;6.43;;;;;;;9.64;75.30;100482.16;5073387;28;20541;-63
2021/10/16 02:50:42;;;;;;;13.43;6.80;;;;;;;9.62;75.43;100478.66;5074473;28;20511;-63
2021/10/16 02:53:26;;;;;;;12.57;6.10;;;;;;;9.60;75.29;100482.06;5074333;28;20159;-63
2021/10/16 02:56:15;;;;;;;13.10;6.13;;;;;;;9.57;75.13;100486.31;5073083;28;20052;-63
2021/10/16 02:59:08;;;;;;;11.93;6.38;;;;;;;9.54;74.74;100481.03;5073561;28;20051;-64
2021/10/16 03:01:52;;;;;;;12.75;6.10;;;;;;;9.53;75.30;100479.28;5073131;28;20059;-63
2021/10/16 03:04:42;;;;;;;12.05;5.35;;;;;;;9.52;74.94;100482.69;5074356;28;20067;-64
2021/10/16 03:07:29;;;;;;;10.35;5.38;;;;;;;9.50;75.30;100480.06;5074215;28;20067;-63
2021/10/16 03:10:13;;;;;;;8.73;6.10;;;;;;;9.48;75.08;100484.34;5073474;28;20111;-63
2021/10/16 03:13:00;;;;;;;11.48;5.35;;;;;;;9.47;74.77;100486.88;5073375;28;20051;-63
2021/10/16 03:15:44;;;;;;;11.73;6.18;;;;;;;9.45;75.04;100492.00;5073080;28;20052;-64
2021/10/16 03:18:35;;;;;;;10.20;5.38;;;;;;;9.43;74.74;100486.78;5073673;28;20545;-64
2021/10/16 03:21:22;;;;;;;7.85;4.60;;;;;;;9.41;74.45;100491.06;5072387;28;20419;-64
2021/10/16 03:24:12;;;;;;;11.43;5.38;;;;;;;9.41;74.53;100490.16;5073666;28;20097;-64
2021/10/16 03:26:56;;;;;;;10.57;5.63;;;;;;;9.40;74.87;100485.81;5072579;28;20431;-63
2021/10/16 03:29:43;;;;;;;9.50;4.65;;;;;;;9.38;74.56;100487.47;5073247;28;20051;-63
2021/10/16 03:32:29;;;;;;;10.32;5.35;;;;;;;9.36;74.62;100484.88;5073663;28;20051;-63
2021/10/16 03:35:13;;;;;;;13.10;6.00;;;;;;;9.35;74.59;100485.69;5073010;28;20047;-63
2021/10/16 03:37:57;;;;;;;11.57;5.55;;;;;;;9.36;74.54;100482.28;5072442;28;20411;-63
2021/10/16 03:40:47;;;;;;;10.60;5.75;;;;;;;9.33;74.54;100482.19;5073693;28;20116;-63
2021/10/16 03:43:34;;;;;;;9.88;5.35;;;;;;;9.32;74.27;100480.44;5072672;28;20071;-63
2021/10/16 03:46:26;;;;;;;11.23;5.72;;;;;;;9.30;74.68;100487.28;5073053;28;20058;-63
2021/10/16 03:49:18;;;;;;;10.48;6.30;;;;;;;9.31;74.40;100489.03;5072484;28;20102;-63
2021/10/16 03:52:07;;;;;;;11.20;6.43;;;;;;;9.30;74.42;100489.84;5072816;28;20067;-64
2021/10/16 03:54:52;;;;;;;9.30;6.15;;;;;;;9.28;74.54;100488.94;5072406;28;20119;-63
2021/10/16 03:57:36;;;;;;;10.55;6.43;;;;;;;9.28;74.59;100488.94;5072713;28;20151;-64
2021/10/16 04:00:25;;;;;;;8.68;5.63;;;;;;;9.25;74.63;100483.69;5073651;28;20173;-64
2021/10/16 04:03:09;;;;;;;8.43;5.82;;;;;;;9.24;74.31;100480.22;5072116;28;20056;-63
2021/10/16 04:05:57;;;;;;;8.60;5.78;;;;;;;9.23;74.50;100478.47;5073226;28;20097;-63
2021/10/16 04:08:41;;;;;;;10.93;6.20;;;;;;;9.22;74.30;100481.03;5073314;28;20051;-63
2021/10/16 04:11:28;;;;;;;8.48;5.20;;;;;;;9.19;74.31;100484.38;5072753;28;20124;-64
2021/10/16 04:14:15;;;;;;;8.80;5.93;;;;;;;9.20;74.26;100477.50;5072514;28;20097;-63
2021/10/16 04:16:59;;;;;;;14.07;6.75;;;;;;;9.16;74.38;100486.91;5073025;28;20090;-63
2021/10/16 04:19:46;;;;;;;8.55;5.43;;;;;;;9.14;74.17;100483.38;5072746;28;20055;-63
2021/10/16 04:22:31;;;;;;;13.07;6.18;;;;;;;9.14;74.27;100488.56;5073147;28;20048;-64
2021/10/16 04:25:18;;;;;;;16.92;6.35;;;;;;;9.12;74.16;100483.31;5071989;28;20102;-64
2021/10/16 04:28:02;;;;;;;10.43;5.13;;;;;;;9.12;74.17;100485.03;5072945;28;20450;-63
2021/10/16 04:30:52;;;;;;;;;;;;;;;9.09;73.68;100483.25;5073673;28;20440;-64
2021/10/16 04:33:39;;;;;;;9.55;5.60;;;;;;;9.09;74.09;100482.38;5072233;28;20282;-64
2021/10/16 04:36:29;;;;;;;7.40;4.88;;;;;;;9.10;73.90;100484.13;5072895;28;20056;-64
2021/10/16 04:39:13;;;;;;;10.73;5.35;;;;;;;9.09;74.05;100479.78;5072535;28;20055;-64
2021/10/16 04:42:00;;;;;;;7.93;5.40;;;;;;;9.08;74.03;100485.78;5073079;28;20051;-63
2021/10/16 04:44:44;;;;;;;6.65;4.50;;;;;;;9.08;74.07;100493.53;5073025;28;20047;-63
2021/10/16 04:47:29;;;;;;;7.13;4.85;;;;;;;9.06;74.00;100490.91;5072925;28;20128;-63
2021/10/16 04:50:15;;;;;;;;;;;;;;;9.05;73.85;100489.16;5073534;28;20090;-64
2021/10/16 04:52:59;;;;;;;8.77;5.00;;;;;;;9.03;73.79;100488.25;5071596;28;19923;-64
2021/10/16 04:55:52;;;;;;;8.18;4.80;;;;;;;9.03;73.89;100495.13;5073295;28;20044;-63
2021/10/16 04:58:44;;;;;;;7.13;5.65;;;;;;;8.99;73.88;100494.13;5075365;28;20043;-64
2021/10/16 05:01:28;;;;;;;7.15;4.65;;;;;;;9.00;73.98;100490.72;5075234;28;20125;-63
2021/10/16 05:04:12;;;;;;;7.80;4.55;;;;;;;8.99;73.88;100491.56;5076414;28;20044;-63
2021/10/16 05:06:59;;;;;;;9.05;5.13;;;;;;;9.00;74.01;100488.13;5076187;28;20423;-64
2021/10/16 05:09:45;;;;;;;7.68;5.90;;;;;;;9.00;73.88;100490.72;5075082;28;20090;-64
2021/10/16 05:12:29;;;;;;;7.00;5.15;;;;;;;9.00;74.13;100488.13;5076410;28;20514;-63
2021/10/16 05:15:18;;;;;;;8.00;5.78;;;;;;;9.00;73.87;100490.72;5076202;28;20043;-64
2021/10/16 05:18:08;;;;;;;8.30;5.85;;;;;;;9.00;73.96;100490.72;5076024;28;20047;-64
2021/10/16 05:20:58;;;;;;;7.97;6.47;;;;;;;8.98;73.58;100493.28;5075973;28;20399;-63
2021/10/16 05:23:44;;;;;;;10.00;7.05;;;;;;;9.03;73.78;100495.13;5076424;28;20087;-63
2021/10/16 05:26:31;;;;;;;10.27;6.65;;;;;;;9.01;73.60;100489.91;5075110;28;20098;-63
2021/10/16 05:29:18;;;;;;;9.20;7.20;;;;;;;9.02;73.76;100486.47;5075503;28;20101;-64
2021/10/16 05:32:05;;;;;;;8.38;6.30;;;;;;;9.01;73.66;100484.72;5075486;28;20605;-63
2021/10/16 05:34:49;;;;;;;8.45;7.18;;;;;;;9.04;74.06;100489.09;5075916;28;20051;-64
2021/10/16 05:37:38;;;;;;;11.60;6.63;;;;;;;9.03;73.86;100495.13;5075944;28;20056;-64
2021/10/16 05:40:25;;;;;;;7.65;5.78;;;;;;;9.06;73.99;100487.44;5074573;28;20087;-63
2021/10/16 05:43:15;;;;;;;10.18;6.43;;;;;;;9.06;74.14;100493.50;5075512;28;20055;-63
2021/10/16 05:46:04;;;;;;;8.95;6.00;;;;;;;9.08;73.91;100490.94;5075205;28;20085;-63
2021/10/16 05:48:48;;;;;;;8.75;6.07;;;;;;;9.10;73.92;100486.72;5074860;28;20557;-63
2021/10/16 05:51:32;;;;;;;8.35;6.10;;;;;;;9.11;74.07;100491.91;5075430;28;20090;-64
2021/10/16 05:54:18;;;;;;;10.13;5.70;;;;;;;9.11;74.02;100493.63;5074995;28;20480;-63
2021/10/16 05:57:02;;;;;;;8.82;5.85;;;;;;;9.13;73.93;100486.81;5074593;28;20117;-63
2021/10/16 05:59:46;;;;;;;10.05;7.00;;;;;;;9.13;73.99;100489.38;5075313;28;20638;-63
2021/10/16 06:02:32;;;;;;;8.63;5.95;;;;;;;9.12;74.03;100483.31;5075499;28;20060;-64
2021/10/16 06:05:20;;;;;;;8.00;6.18;;;;;;;9.12;74.00;100487.63;5074440;28;20047;-63
2021/10/16 06:08:08;;;;;;;8.80;5.72;;;;;;;9.11;74.11;100491.91;5074640;28;20042;-63
2021/10/16 06:10:57;;;;;;;8.15;5.95;;;;;;;9.10;74.02;100486.72;5074971;28;20470;-63
2021/10/16 06:13:49;;;;;;;11.38;5.80;;;;;;;9.10;73.67;100484.13;5074084;28;20133;-63
2021/10/16 06:16:39;;;;;;;8.05;5.38;;;;;;;9.08;74.06;100496.13;5074800;28;20051;-64
2021/10/16 06:19:26;;;;;;;8.40;5.57;;;;;;;9.09;73.92;100492.72;5074289;28;20538;-63
2021/10/16 06:22:10;;;;;;;10.18;6.00;;;;;;;9.07;74.11;100500.44;5074225;28;20044;-63
2021/10/16 06:25:00;;;;;;;24.80;6.65;;;;;;;9.08;73.88;100497.00;5073906;28;20574;-63
2021/10/16 06:27:44;;;;;;;9.32;6.00;;;;;;;9.08;74.00;100501.28;5074364;28;20096;-64
2021/10/16 06:30:34;;;;;;;9.25;5.63;;;;;;;9.07;73.60;100510.78;5074843;28;20494;-64
2021/10/16 06:33:25;;;;;;;13.00;6.10;;;;;;;9.06;73.93;100503.84;5073577;28;20550;-64
2021/10/16 06:36:09;;;;;;;6.35;5.75;;;;;;;9.06;73.98;100506.44;5074742;28;20094;-63
2021/10/16 06:38:58;;;;;;;9.15;6.40;;;;;;;9.04;73.83;100508.09;5074590;28;20051;-64
2021/10/16 06:41:48;;;;;;;8.75;6.53;;;;;;;9.04;73.76;100510.69;5074027;28;20051;-64
2021/10/16 06:44:32;;;;;;;9.82;6.93;;;;;;;9.01;73.82;100513.16;5073755;28;20046;-63
2021/10/16 06:47:21;;;;;;;10.52;6.20;;;;;;;8.98;74.08;100505.31;5073813;28;20109;-63
2021/10/16 06:50:11;;;;;;;12.68;6.00;;;;;;;8.98;73.77;100518.25;5073484;28;20055;-64
2021/10/16 06:52:58;;;;;;;10.52;6.35;;;;;;;8.99;73.75;100512.25;5073590;28;20051;-63
2021/10/16 06:55:45;;;;;;;10.18;6.00;;;;;;;8.99;73.85;100514.81;5073534;28;20047;-64
2021/10/16 06:58:34;;;;;;;10.82;6.35;;;;;;;9.01;73.73;100520.06;5074454;28;20128;-64
2021/10/16 07:01:21;;;;;;;7.43;6.03;;;;;;;9.02;73.85;100525.25;5072932;28;20475;-63
2021/10/16 07:04:07;;;;;;;8.88;6.15;;;;;;;9.02;74.13;100519.22;5074192;28;20067;-64
2021/10/16 07:06:52;;;;;;;9.15;6.50;;;;;;;9.02;73.78;100530.44;5074092;28;20056;-64
2021/10/16 07:09:44;;;;;;;11.38;7.60;;;;;;;9.02;74.11;100525.25;5073173;28;20101;-63
2021/10/16 07:12:35;;;;;;;9.00;6.25;;;;;;;9.03;74.00;100521.84;5072968;28;20055;-63
2021/10/16 07:15:27;;;;;;;15.15;6.80;;;;;;;9.03;73.84;100532.19;5072812;28;20046;-64
2021/10/16 07:18:14;;;;;;;8.60;6.25;;;;;;;9.06;73.99;100528.81;5072351;28;20116;-63
2021/10/16 07:21:00;;;;;;;12.82;7.45;;;;;;;9.05;73.95;100533.13;5073307;28;20039;-64
2021/10/16 07:23:47;;;;;;;9.35;6.38;;;;;;;9.08;74.14;100532.31;5072629;28;20063;-64
2021/10/16 07:26:34;;;;;;;11.05;6.97;;;;;;;9.09;74.03;100537.56;5073495;28;20047;-64
2021/10/16 07:29:18;;;;;;;11.85;7.32;;;;;;;9.10;74.20;100541.91;5072629;28;20078;-63
2021/10/16 07:32:02;;;;;;;10.82;7.50;;;;;;;9.11;74.02;100548.78;5073570;28;20128;-63
2021/10/16 07:34:49;;;;;;;15.57;6.72;;;;;;;9.12;74.21;100542.78;5072913;28;20043;-64
2021/10/16 07:37:36;;;;;;;12.55;7.32;;;;;;;9.13;74.15;100541.97;5073484;28;20526;-64
2021/10/16 07:40:20;;;;;;;15.85;8.02;;;;;;;9.15;73.97;100542.03;5073454;28;20059;-64
2021/10/16 07:43:14;;;;;;;14.98;7.93;;;;;;;9.16;73.89;100548.97;5073446;28;20052;-64
2021/10/16 07:46:04;;;;;;;12.27;9.00;;;;;;;9.17;74.12;100548.13;5073286;28;20415;-63
2021/10/16 07:48:53;;;;;;;11.90;8.32;;;;;;;9.18;74.21;100555.06;5073308;28;20098;-63
2021/10/16 07:51:40;;;;;;;13.65;8.43;;;;;;;9.19;74.30;100550.75;5072810;28;20071;-64
2021/10/16 07:54:24;;;;;;;17.52;8.70;;;;;;;9.20;74.24;100550.78;5073329;28;20055;-63
2021/10/16 07:57:09;;;;;;;12.82;7.40;;;;;;;9.20;74.25;100555.97;5073692;28;20094;-63
2021/10/16 07:59:55;;;;;;;13.25;7.82;;;;;;;9.21;74.43;100549.94;5073502;28;20052;-63
2021/10/16 08:02:45;;;;;;;14.05;7.78;;;;;;;9.22;74.45;100550.84;5072063;28;20060;-64
2021/10/16 08:05:38;;;;;;;12.18;8.13;;;;;;;9.22;74.02;100556.03;5073664;28;20511;-63
2021/10/16 08:08:24;;;;;;;9.65;7.20;;;;;;;9.22;74.36;100556.88;5073254;28;20105;-64
2021/10/16 08:11:11;;;;;;;13.95;7.88;;;;;;;9.23;74.25;100553.47;5072691;28;20047;-63
2021/10/16 08:13:58;;;;;;;14.43;8.23;;;;;;;9.24;74.26;100556.94;5072699;28;20105;-63
2021/10/16 08:16:47;;;;;;;12.40;7.70;;;;;;;9.26;74.35;100550.13;5072792;28;20139;-64
2021/10/16 08:19:31;;;;;;;10.77;7.88;;;;;;;9.28;74.61;100551.91;5073480;28;20128;-64
2021/10/16 08:22:15;;;;;;;13.13;8.02;;;;;;;9.27;74.43;100544.97;5072707;28;20075;-63
2021/10/16 08:25:02;;;;;;;;;;;;;;;9.31;74.19;100545.94;5073010;28;20048;-64
2021/10/16 08:27:49;;;;;;;19.75;8.27;;;;;;;9.32;74.25;100544.25;5072164;28;19965;-64
2021/10/16 08:30:38;;;;;;;15.65;8.25;;;;;;;9.34;74.46;100540.00;5075009;28;20043;-63
2021/10/16 08:33:27;;;;;;;12.48;7.35;;;;;;;9.36;73.98;100548.66;5076088;28;20048;-64
2021/10/16 08:36:19;;;;;;;12.05;7.13;;;;;;;9.37;74.83;100545.22;5077222;28;20070;-63
2021/10/16 08:39:07;;;;;;;16.20;8.15;;;;;;;9.40;74.61;100556.56;5075722;28;20043;-64
2021/10/16 08:41:56;;;;;;;10.88;7.93;;;;;;;9.42;74.36;100552.28;5076178;28;20059;-64
2021/10/16 08:44:40;;;;;;;9.30;6.95;;;;;;;9.44;74.38;100548.03;5076762;28;20043;-64
2021/10/16 08:47:32;;;;;;;17.23;7.85;;;;;;;9.48;74.36;100548.13;5076581;28;20052;-63
2021/10/16 08:50:17;;;;;;;16.00;7.60;;;;;;;9.50;74.41;100552.50;5075877;28;20519;-63
2021/10/16 08:53:03;;;;;;;;;;;;;;;9.52;74.50;100556.03;5076762;28;20097;-64
2021/10/16 08:55:54;;;;;;;10.68;6.68;;;;;;;9.53;74.40;100544.84;5076835;28;19922;-63
2021/10/16 08:58:47;;;;;;;18.27;7.68;;;;;;;9.57;74.36;100545.81;5076542;28;20105;-63
2021/10/16 09:01:58;;;;;;;13.27;7.55;;;;;;;9.60;74.38;100545.88;5075513;28;20063;-63
2021/10/16 09:04:42;;;;;;;10.57;7.00;;;;;;;9.62;74.49;100546.81;5075666;28;20048;-63
2021/10/16 09:07:26;;;;;;;12.43;7.97;;;;;;;9.65;74.41;100544.31;5076098;28;20106;-63
2021/10/16 09:10:21;;;;;;;16.42;6.78;;;;;;;9.68;74.46;100541.81;5076403;28;20515;-64
2021/10/16 09:13:08;;;;;;;12.75;6.97;;;;;;;9.71;74.17;100553.94;5076160;28;20102;-63
2021/10/16 09:15:55;;;;;;;10.88;6.80;;;;;;;9.74;74.28;100544.56;5075161;28;20114;-64
2021/10/16 09:18:49;;;;;;;14.45;7.18;;;;;;;9.78;74.58;100547.22;5076469;28;20457;-64
2021/10/16 09:21:48;;;;;;;10.63;6.80;;;;;;;9.80;74.34;100546.47;5075560;28;20166;-63
2021/10/16 09:24:45;;;;;;;11.65;5.50;;;;;;;9.83;74.50;100545.66;5076388;28;20055;-63
2021/10/16 09:27:30;;;;;;;9.68;5.65;;;;;;;9.85;74.40;100544.00;5075084;28;20071;-63
2021/10/16 09:30:14;;;;;;;11.88;5.55;;;;;;;9.87;74.21;100538.00;5075218;28;20051;-63
2021/10/16 09:32:58;;;;;;;12.90;6.57;;;;;;;9.88;74.51;100544.06;5076103;28;20083;-63
2021/10/16 09:35:47;;;;;;;12.23;6.07;;;;;;;9.90;74.18;100538.09;5075669;28;20052;-63
2021/10/16 09:38:41;;;;;;;10.85;5.75;;;;;;;9.92;74.08;100540.72;5074703;28;20043;-63
2021/10/16 09:41:35;;;;;;;16.27;5.82;;;;;;;9.94;74.22;100543.34;5074410;28;20104;-63
2021/10/16 09:44:31;;;;;;;14.15;5.93;;;;;;;9.96;74.30;100539.09;5075114;28;20071;-63
2021/10/16 09:47:21;;;;;;;11.85;5.32;;;;;;;9.96;74.38;100528.75;5075729;28;20043;-63
2021/10/16 09:50:16;;;;;;;10.68;6.38;;;;;;;9.98;74.19;100537.41;5074892;28;20522;-63
2021/10/16 09:53:17;;;;;;;9.07;4.63;;;;;;;9.99;74.50;100545.22;5074613;28;20051;-63
2021/10/16 09:56:07;;;;;;;13.05;5.20;;;;;;;10.01;74.40;100546.16;5074941;28;20052;-63
2021/10/16 09:59:05;;;;;;;14.23;5.53;;;;;;;10.02;74.45;100544.41;5075774;28;20098;-63
2021/10/16 10:02:03;;;;;;;8.77;4.85;;;;;;;10.02;74.03;100550.50;5074301;28;20063;-63
2021/10/16 10:04:53;;;;;;;13.35;5.00;;;;;;;10.05;74.28;100547.09;5074666;28;20514;-64
2021/10/16 10:07:52;;;;;;;12.07;5.30;;;;;;;10.06;74.33;100548.84;5074207;28;20044;-64
2021/10/16 10:10:46;;;;;;;10.52;4.88;;;;;;;10.08;74.15;100554.06;5075196;28;20044;-63
2021/10/16 10:13:34;;;;;;;9.55;4.72;;;;;;;10.08;74.37;100548.88;5073959;28;20187;-63
2021/10/16 10:16:18;;;;;;;8.68;4.20;;;;;;;10.11;74.43;100551.56;5074058;28;20094;-63
2021/10/16 10:19:04;;;;;;;;;;;;;;;10.11;74.39;100547.28;5074419;28;20095;-63
2021/10/16 10:21:48;;;;;;;10.13;4.97;;;;;;;10.12;74.24;100553.31;5075741;28;19919;-63
2021/10/16 10:24:38;;;;;;;14.77;4.88;;;;;;;10.14;74.11;100555.09;5074188;28;20094;-63
2021/10/16 10:27:24;;;;;;;11.88;4.55;;;;;;;10.15;74.42;100551.66;5074732;28;20174;-63
2021/10/16 10:30:34;;;;;;;7.57;3.85;;;;;;;10.16;74.20;100552.56;5074394;28;20051;-63
2021/10/16 10:33:22;;;;;;;6.95;4.28;;;;;;;10.15;74.00;100543.91;5074434;28;20067;-63
2021/10/16 10:36:06;;;;;;;7.25;3.88;;;;;;;10.16;74.34;100548.25;5074736;28;20109;-63
2021/10/16 10:38:50;;;;;;;9.68;4.00;;;;;;;10.18;74.13;100545.72;5074853;28;20043;-64
2021/10/16 10:41:36;;;;;;;9.82;3.60;;;;;;;10.19;74.13;100545.75;5074297;28;20410;-63
2021/10/16 10:44:46;;;;;;;9.40;3.72;;;;;;;10.20;73.89;100539.72;5074378;28;20407;-63
2021/10/16 10:47:33;;;;;;;9.27;3.75;;;;;;;10.22;73.89;100542.34;5073436;28;20043;-63
2021/10/16 10:50:48;;;;;;;12.15;4.60;;;;;;;10.25;73.94;100544.16;5073160;28;20501;-63
2021/10/16 10:53:34;;;;;;;8.63;3.75;;;;;;;10.26;74.09;100543.31;5072754;28;20469;-63
2021/10/16 10:56:20;;;;;;;8.88;3.40;;;;;;;10.28;73.90;100544.19;5073339;28;20043;-63
2021/10/16 10:59:09;;;;;;;10.65;3.60;;;;;;;10.29;73.99;100545.97;5073739;28;20052;-63
2021/10/16 11:02:05;;;;;;;8.43;3.63;;;;;;;10.29;73.96;100546.84;5073318;28;20060;-63
2021/10/16 11:04:52;;;;;;;7.72;3.65;;;;;;;10.31;73.97;100533.94;5073793;28;20086;-63
2021/10/16 11:07:46;;;;;;;11.35;3.78;;;;;;;10.31;73.92;100536.50;5074132;28;20091;-63
2021/10/16 11:10:37;;;;;;;11.60;4.75;;;;;;;10.33;74.10;100533.16;5074243;28;20566;-63
2021/10/16 11:13:21;;;;;;;9.70;3.08;;;;;;;10.32;73.83;100531.38;5072806;28;20111;-63
2021/10/16 11:16:09;;;;;;;8.48;3.80;;;;;;;10.33;73.78;100527.97;5073037;28;20197;-63
2021/10/16 11:18:57;;;;;;;8.38;3.72;;;;;;;10.34;74.07;100523.66;5073664;28;20056;-63
2021/10/16 11:21:49;;;;;;;24.70;4.32;;;;;;;10.35;74.16;100525.41;5073153;28;20051;-63
2021/10/16 11:24:36;;;;;;;5.10;2.78;;;;;;;10.35;73.93;100525.41;5073117;28;20427;-63
2021/10/16 11:27:24;;;;;;;8.52;3.20;;;;;;;10.36;73.78;100520.25;5073779;28;20078;-63
2021/10/16 11:30:18;;;;;;;4.45;2.78;;;;;;;10.38;74.04;100517.75;5072667;28;20083;-63
2021/10/16 11:33:10;;;;;;;7.68;3.25;;;;;;;10.39;73.73;100516.00;5072885;28;20047;-63
2021/10/16 11:36:00;;;;;;;8.75;3.50;;;;;;;10.40;73.75;100518.66;5072604;28;20043;-63
2021/10/16 11:38:45;;;;;;;11.93;3.30;;;;;;;10.39;74.01;100516.91;5072493;28;20040;-63
2021/10/16 11:41:30;;;;;;;;;;;;;;;10.38;73.87;100515.16;5073743;28;20113;-63
2021/10/16 11:44:19;;;;;;;10.75;4.35;;;;;;;10.38;73.92;100503.84;5073290;28;20321;-63
2021/10/16 11:47:07;;;;;;;8.50;3.42;;;;;;;10.41;73.55;100509.16;5073657;28;20047;-63
2021/10/16 11:49:51;;;;;;;7.10;3.15;;;;;;;10.41;73.78;100509.16;5072776;28;20043;-63
2021/10/16 11:52:35;;;;;;;6.15;2.90;;;;;;;10.41;73.84;100507.44;5073522;28;20059;-63
2021/10/16 11:55:22;;;;;;;7.55;2.65;;;;;;;10.42;74.07;100503.13;5073371;28;20042;-63
2021/10/16 11:58:18;;;;;;;5.68;2.80;;;;;;;10.43;73.59;100499.72;5073028;28;20081;-63
2021/10/16 12:01:07;;;;;;;13.90;4.05;;;;;;;10.43;73.81;100497.13;5072318;28;20040;-63
2021/10/16 12:03:51;;;;;;;8.05;2.80;;;;;;;10.43;73.65;100503.16;5073104;28;20079;-63
2021/10/16 12:06:42;;;;;;;7.07;2.80;;;;;;;10.45;73.51;100495.44;5073127;28;20419;-63
2021/10/16 12:09:28;;;;;;;8.32;2.75;;;;;;;10.45;73.75;100498.03;5072387;28;20051;-63
2021/10/16 12:12:16;;;;;;;6.53;2.53;;;;;;;10.44;73.62;100497.13;5072633;28;20047;-63
2021/10/16 12:15:03;;;;;;;8.20;3.30;;;;;;;10.44;73.80;100494.53;5072861;28;20117;-63
2021/10/16 12:17:50;;;;;;;10.05;2.38;;;;;;;10.45;73.57;100491.13;5073224;28;20047;-63
2021/10/16 12:21:04;;;;;;;7.45;2.83;;;;;;;10.44;73.86;100491.94;5073236;28;20056;-63
2021/10/16 12:23:54;;;;;;;6.03;2.85;;;;;;;10.44;73.72;100494.53;5068141;28;20518;-63
2021/10/16 12:26:41;;;;;;;10.82;3.28;;;;;;;10.43;73.94;100491.94;5073194;28;20048;-63
2021/10/16 12:29:29;;;;;;;14.43;4.38;;;;;;;10.43;73.83;100494.53;5072195;28;20094;-63
2021/10/16 12:32:15;;;;;;;7.22;2.95;;;;;;;10.41;73.98;100491.91;5072320;28;20518;-63
2021/10/16 12:35:04;;;;;;;6.88;2.90;;;;;;;10.42;73.60;100495.34;5072442;28;20063;-63
2021/10/16 12:38:02;;;;;;;10.68;3.50;;;;;;;10.40;73.78;100492.75;5072066;28;20044;-63
2021/10/16 12:40:49;;;;;;;11.90;3.50;;;;;;;10.40;73.92;100487.56;5071968;28;20128;-63
2021/10/16 12:43:39;;;;;;;9.30;3.40;;;;;;;10.41;73.75;100483.25;5072822;28;20051;-63
2021/10/16 12:46:29;;;;;;;6.45;2.80;;;;;;;10.40;74.07;100487.56;5072213;28;20047;-63
2021/10/16 12:49:36;;;;;;;7.38;2.97;;;;;;;10.40;73.71;100487.56;5071974;28;20419;-63
2021/10/16 12:52:31;;;;;;;9.95;3.30;;;;;;;10.39;73.54;100484.91;5072513;28;20050;-63
2021/10/16 12:55:15;;;;;;;4.45;2.17;;;;;;;10.40;73.74;100489.25;5072016;28;20044;-63
2021/10/16 12:58:05;;;;;;;5.72;2.60;;;;;;;10.39;73.65;100479.72;5072757;28;20419;-63
2021/10/16 13:00:49;;;;;;;7.22;3.33;;;;;;;10.38;73.65;100473.69;5071954;28;20114;-63
2021/10/16 13:03:36;;;;;;;8.32;2.95;;;;;;;10.38;73.68;100467.59;5071477;28;20071;-63